sensor_id;sensor_type;location;lat;lon;timestamp;temperature;humidity
16838;DHT22;19510;54.486;9.046;2022-07-29T04:43:21;13.50;99.90
16838;DHT22;19510;54.486;9.046;2022-07-29T04:45:49;13.60;99.90
16838;DHT22;19510;54.486;9.046;2022-07-29T04:48:15;13.60;99.90
16838;DHT22;19510;54.486;9.046;2022-07-29T04:50:41;13.70;99.90
16838;DHT22;19510;54.486;9.046;2022-07-29T04:53:07;13.70;99.90
16838;DHT22;19510;54.486;9.046;2022-07-29T04:55:33;13.60;99.90
16838;DHT22;19510;54.486;9.046;2022-07-29T04:58:01;13.60;99.90
16838;DHT22;19510;54.486;9.046;2022-07-29T05:00:27;13.50;99.90
16838;DHT22;19510;54.486;9.046;2022-07-29T05:02:53;13.60;99.90
16838;DHT22;19510;54.486;9.046;2022-07-29T05:05:19;13.60;99.90
16838;DHT22;19510;54.486;9.046;2022-07-29T05:07:44;13.60;99.90
16838;DHT22;19510;54.486;9.046;2022-07-29T05:10:12;13.60;99.90
16838;DHT22;19510;54.486;9.046;2022-07-29T05:12:38;13.70;99.90
16838;DHT22;19510;54.486;9.046;2022-07-29T05:15:04;13.70;99.90
16838;DHT22;19510;54.486;9.046;2022-07-29T05:17:30;13.70;99.90
16838;DHT22;19510;54.486;9.046;2022-07-29T05:19:55;13.70;99.90
16838;DHT22;19510;54.486;9.046;2022-07-29T05:22:21;13.70;99.90
16838;DHT22;19510;54.486;9.046;2022-07-29T05:24:47;13.80;99.90
16838;DHT22;19510;54.486;9.046;2022-07-29T05:27:13;13.90;99.90
16838;DHT22;19510;54.486;9.046;2022-07-29T05:29:39;13.90;99.90
16838;DHT22;19510;54.486;9.046;2022-07-29T05:32:05;13.90;99.90
16838;DHT22;19510;54.486;9.046;2022-07-29T05:34:31;13.90;99.90
16838;DHT22;19510;54.486;9.046;2022-07-29T05:36:57;13.90;99.90
16838;DHT22;19510;54.486;9.046;2022-07-29T05:39:23;14.00;99.90
16838;DHT22;19510;54.486;9.046;2022-07-29T05:41:49;14.00;99.90
16838;DHT22;19510;54.486;9.046;2022-07-29T05:44:17;14.00;99.90
16838;DHT22;19510;54.486;9.046;2022-07-29T05:46:42;14.10;99.90
16838;DHT22;19510;54.486;9.046;2022-07-29T05:49:08;14.20;99.90
16838;DHT22;19510;54.486;9.046;2022-07-29T05:51:34;14.30;99.90
16838;DHT22;19510;54.486;9.046;2022-07-29T05:54:00;14.30;99.90
16838;DHT22;19510;54.486;9.046;2022-07-29T05:56:27;14.50;99.90
16838;DHT22;19510;54.486;9.046;2022-07-29T05:58:52;14.60;99.90
16838;DHT22;19510;54.486;9.046;2022-07-29T06:01:18;14.80;99.90
16838;DHT22;19510;54.486;9.046;2022-07-29T06:03:44;14.90;99.90
16838;DHT22;19510;54.486;9.046;2022-07-29T06:06:12;15.00;99.90
16838;DHT22;19510;54.486;9.046;2022-07-29T06:08:38;15.10;99.90
16838;DHT22;19510;54.486;9.046;2022-07-29T06:11:04;15.10;99.90
16838;DHT22;19510;54.486;9.046;2022-07-29T06:13:30;15.20;99.90
16838;DHT22;19510;54.486;9.046;2022-07-29T06:15:56;15.30;99.90
16838;DHT22;19510;54.486;9.046;2022-07-29T06:18:22;15.40;99.90
16838;DHT22;19510;54.486;9.046;2022-07-29T06:20:52;15.40;99.90
16838;DHT22;19510;54.486;9.046;2022-07-29T06:23:19;15.40;99.90
16838;DHT22;19510;54.486;9.046;2022-07-29T06:25:45;15.50;99.90
16838;DHT22;19510;54.486;9.046;2022-07-29T06:28:11;15.60;99.90
16838;DHT22;19510;54.486;9.046;2022-07-29T06:30:38;15.70;99.90
16838;DHT22;19510;54.486;9.046;2022-07-29T06:33:04;15.70;99.90
16838;DHT22;19510;54.486;9.046;2022-07-29T06:35:32;15.80;99.90
16838;DHT22;19510;54.486;9.046;2022-07-29T06:37:58;15.80;99.90
16838;DHT22;19510;54.486;9.046;2022-07-29T06:40:24;15.90;99.90
16838;DHT22;19510;54.486;9.046;2022-07-29T06:43:08;16.00;99.90
16838;DHT22;19510;54.486;9.046;2022-07-29T06:45:34;16.00;99.90
16838;DHT22;19510;54.486;9.046;2022-07-29T06:48:00;16.00;99.90
16838;DHT22;19510;54.486;9.046;2022-07-29T06:50:26;16.10;99.90
16838;DHT22;19510;54.486;9.046;2022-07-29T06:52:51;16.20;99.90
16838;DHT22;19510;54.486;9.046;2022-07-29T06:55:17;16.30;99.90
16838;DHT22;19510;54.486;9.046;2022-07-29T06:57:45;16.30;99.90
16838;DHT22;19510;54.486;9.046;2022-07-29T07:00:11;16.30;99.90
16838;DHT22;19510;54.486;9.046;2022-07-29T07:02:37;16.40;99.90
16838;DHT22;19510;54.486;9.046;2022-07-29T07:05:03;16.40;99.90
16838;DHT22;19510;54.486;9.046;2022-07-29T07:07:28;16.50;99.90
16838;DHT22;19510;54.486;9.046;2022-07-29T07:09:54;16.50;99.90
16838;DHT22;19510;54.486;9.046;2022-07-29T07:12:20;16.60;99.90
16838;DHT22;19510;54.486;9.046;2022-07-29T07:14:47;16.60;99.90
16838;DHT22;19510;54.486;9.046;2022-07-29T07:17:13;16.70;99.90
16838;DHT22;19510;54.486;9.046;2022-07-29T07:19:39;16.80;99.90
16838;DHT22;19510;54.486;9.046;2022-07-29T07:22:04;16.80;99.90
16838;DHT22;19510;54.486;9.046;2022-07-29T07:24:30;16.90;99.90
16838;DHT22;19510;54.486;9.046;2022-07-29T07:26:56;16.90;99.90
16838;DHT22;19510;54.486;9.046;2022-07-29T07:29:24;17.00;99.90
16838;DHT22;19510;54.486;9.046;2022-07-29T07:31:49;17.10;99.90
16838;DHT22;19510;54.486;9.046;2022-07-29T07:34:15;17.30;99.90
16838;DHT22;19510;54.486;9.046;2022-07-29T07:36:41;17.30;99.90
16838;DHT22;19510;54.486;9.046;2022-07-29T07:39:08;17.40;99.90
16838;DHT22;19510;54.486;9.046;2022-07-29T07:41:34;17.50;99.90
16838;DHT22;19510;54.486;9.046;2022-07-29T07:44:00;17.60;99.90
16838;DHT22;19510;54.486;9.046;2022-07-29T07:46:25;17.60;99.90
16838;DHT22;19510;54.486;9.046;2022-07-29T07:48:51;17.70;99.90
16838;DHT22;19510;54.486;9.046;2022-07-29T07:51:17;17.80;99.90
16838;DHT22;19510;54.486;9.046;2022-07-29T07:53:43;17.80;99.90
16838;DHT22;19510;54.486;9.046;2022-07-29T07:56:10;18.00;99.90
16838;DHT22;19510;54.486;9.046;2022-07-29T07:58:36;18.10;99.90
16838;DHT22;19510;54.486;9.046;2022-07-29T08:01:02;18.10;99.90
16838;DHT22;19510;54.486;9.046;2022-07-29T08:03:27;18.30;99.90
16838;DHT22;19510;54.486;9.046;2022-07-29T08:05:53;18.40;99.90
16838;DHT22;19510;54.486;9.046;2022-07-29T08:08:19;18.60;99.90
16838;DHT22;19510;54.486;9.046;2022-07-29T08:10:45;18.70;99.90
16838;DHT22;19510;54.486;9.046;2022-07-29T08:13:18;18.70;99.90
16838;DHT22;19510;54.486;9.046;2022-07-29T08:15:44;18.80;99.90
16838;DHT22;19510;54.486;9.046;2022-07-29T08:18:12;18.80;99.90
16838;DHT22;19510;54.486;9.046;2022-07-29T08:20:38;18.90;99.90
16838;DHT22;19510;54.486;9.046;2022-07-29T08:23:05;18.90;99.90
16838;DHT22;19510;54.486;9.046;2022-07-29T08:25:32;19.00;99.90
16838;DHT22;19510;54.486;9.046;2022-07-29T08:27:58;19.10;99.90
16838;DHT22;19510;54.486;9.046;2022-07-29T08:30:24;19.20;99.90
16838;DHT22;19510;54.486;9.046;2022-07-29T08:32:50;19.20;99.90
16838;DHT22;19510;54.486;9.046;2022-07-29T08:35:19;19.20;99.90
16838;DHT22;19510;54.486;9.046;2022-07-29T08:37:45;19.30;99.90
16838;DHT22;19510;54.486;9.046;2022-07-29T08:40:12;19.40;99.90
16838;DHT22;19510;54.486;9.046;2022-07-29T08:42:37;19.40;99.90
16838;DHT22;19510;54.486;9.046;2022-07-29T08:45:06;19.50;99.90
16838;DHT22;19510;54.486;9.046;2022-07-29T08:47:33;19.50;99.90
16838;DHT22;19510;54.486;9.046;2022-07-29T08:50:01;19.60;99.90
16838;DHT22;19510;54.486;9.046;2022-07-29T08:52:30;19.60;99.90
16838;DHT22;19510;54.486;9.046;2022-07-29T08:54:58;19.70;99.90
16838;DHT22;19510;54.486;9.046;2022-07-29T08:57:25;19.80;99.90
16838;DHT22;19510;54.486;9.046;2022-07-29T08:59:52;19.90;99.90
16838;DHT22;19510;54.486;9.046;2022-07-29T09:02:20;20.00;99.90
16838;DHT22;19510;54.486;9.046;2022-07-29T09:04:47;20.20;99.90
16838;DHT22;19510;54.486;9.046;2022-07-29T09:07:17;20.30;99.90
16838;DHT22;19510;54.486;9.046;2022-07-29T09:09:43;20.40;99.90
16838;DHT22;19510;54.486;9.046;2022-07-29T09:12:10;20.50;99.90
16838;DHT22;19510;54.486;9.046;2022-07-29T09:14:39;20.60;99.90
16838;DHT22;19510;54.486;9.046;2022-07-29T09:17:06;20.70;99.90
16838;DHT22;19510;54.486;9.046;2022-07-29T09:19:34;20.80;99.90
16838;DHT22;19510;54.486;9.046;2022-07-29T09:22:09;20.90;99.90
16838;DHT22;19510;54.486;9.046;2022-07-29T09:24:41;21.00;99.90
16838;DHT22;19510;54.486;9.046;2022-07-29T09:27:24;21.00;99.90
16838;DHT22;19510;54.486;9.046;2022-07-29T09:29:59;21.00;99.90
16838;DHT22;19510;54.486;9.046;2022-07-29T09:32:28;21.00;99.90
16838;DHT22;19510;54.486;9.046;2022-07-29T09:35:19;21.00;99.90
16838;DHT22;19510;54.486;9.046;2022-07-29T09:37:46;21.00;99.90
16838;DHT22;19510;54.486;9.046;2022-07-29T09:40:17;21.00;99.90
16838;DHT22;19510;54.486;9.046;2022-07-29T09:42:44;21.00;99.90
16838;DHT22;19510;54.486;9.046;2022-07-29T09:45:10;20.90;99.90
16838;DHT22;19510;54.486;9.046;2022-07-29T09:47:47;20.90;99.90
16838;DHT22;19510;54.486;9.046;2022-07-29T09:50:15;20.90;99.90
16838;DHT22;19510;54.486;9.046;2022-07-29T09:52:51;21.00;99.90
16838;DHT22;19510;54.486;9.046;2022-07-29T09:55:18;21.10;99.90
16838;DHT22;19510;54.486;9.046;2022-07-29T09:57:45;21.30;99.90
16838;DHT22;19510;54.486;9.046;2022-07-29T10:00:12;21.40;99.90
16838;DHT22;19510;54.486;9.046;2022-07-29T10:02:40;21.60;99.90
16838;DHT22;19510;54.486;9.046;2022-07-29T10:05:17;21.80;99.90
16838;DHT22;19510;54.486;9.046;2022-07-29T10:07:51;21.90;99.90
16838;DHT22;19510;54.486;9.046;2022-07-29T10:10:27;22.00;99.90
16838;DHT22;19510;54.486;9.046;2022-07-29T10:12:59;22.10;99.90
16838;DHT22;19510;54.486;9.046;2022-07-29T10:15:26;22.20;99.90
16838;DHT22;19510;54.486;9.046;2022-07-29T10:17:56;22.30;99.90
16838;DHT22;19510;54.486;9.046;2022-07-29T10:20:23;22.40;99.90
16838;DHT22;19510;54.486;9.046;2022-07-29T10:22:50;22.40;99.90
16838;DHT22;19510;54.486;9.046;2022-07-29T10:25:16;22.40;99.90
16838;DHT22;19510;54.486;9.046;2022-07-29T10:27:44;22.40;99.90
16838;DHT22;19510;54.486;9.046;2022-07-29T10:30:14;22.40;99.90
16838;DHT22;19510;54.486;9.046;2022-07-29T10:44:39;22.10;99.90
16838;DHT22;19510;54.486;9.046;2022-07-29T10:47:05;21.90;99.90
16838;DHT22;19510;54.486;9.046;2022-07-29T10:49:31;21.80;99.90
16838;DHT22;19510;54.486;9.046;2022-07-29T10:52:06;21.70;99.90
16838;DHT22;19510;54.486;9.046;2022-07-29T10:54:39;21.70;99.90
16838;DHT22;19510;54.486;9.046;2022-07-29T10:57:28;21.80;99.90
16838;DHT22;19510;54.486;9.046;2022-07-29T11:05:08;21.90;99.90
16838;DHT22;19510;54.486;9.046;2022-07-29T11:07:35;22.00;99.90
16838;DHT22;19510;54.486;9.046;2022-07-29T11:15:12;22.20;99.90
16838;DHT22;19510;54.486;9.046;2022-07-29T11:20:44;22.30;99.90
16838;DHT22;19510;54.486;9.046;2022-07-29T11:26:17;22.40;99.90
16838;DHT22;19510;54.486;9.046;2022-07-29T11:28:50;22.50;99.90
16838;DHT22;19510;54.486;9.046;2022-07-29T11:31:29;22.50;99.90
16838;DHT22;19510;54.486;9.046;2022-07-29T11:33:57;22.60;99.90
16838;DHT22;19510;54.486;9.046;2022-07-29T11:36:25;22.60;99.90
16838;DHT22;19510;54.486;9.046;2022-07-29T11:38:51;22.70;99.90
16838;DHT22;19510;54.486;9.046;2022-07-29T11:43:53;22.90;99.90
16838;DHT22;19510;54.486;9.046;2022-07-29T11:49:07;23.00;99.90
16838;DHT22;19510;54.486;9.046;2022-07-29T11:51:40;23.00;99.90
16838;DHT22;19510;54.486;9.046;2022-07-29T11:54:09;23.00;99.90
16838;DHT22;19510;54.486;9.046;2022-07-29T11:56:39;23.10;99.90
16838;DHT22;19510;54.486;9.046;2022-07-29T11:59:09;23.20;99.90
16838;DHT22;19510;54.486;9.046;2022-07-29T12:01:35;23.30;99.90
16838;DHT22;19510;54.486;9.046;2022-07-29T12:04:07;23.40;99.90
16838;DHT22;19510;54.486;9.046;2022-07-29T12:06:34;23.40;99.90
16838;DHT22;19510;54.486;9.046;2022-07-29T12:09:00;23.50;99.90
16838;DHT22;19510;54.486;9.046;2022-07-29T12:11:26;23.60;99.90
16838;DHT22;19510;54.486;9.046;2022-07-29T12:13:54;23.60;99.90
16838;DHT22;19510;54.486;9.046;2022-07-29T12:16:20;23.60;99.90
16838;DHT22;19510;54.486;9.046;2022-07-29T12:18:59;23.70;99.90
16838;DHT22;19510;54.486;9.046;2022-07-29T12:21:25;23.70;99.90
16838;DHT22;19510;54.486;9.046;2022-07-29T12:23:53;23.80;99.90
16838;DHT22;19510;54.486;9.046;2022-07-29T12:26:19;23.80;99.90
16838;DHT22;19510;54.486;9.046;2022-07-29T12:28:45;23.80;99.90
16838;DHT22;19510;54.486;9.046;2022-07-29T12:31:15;23.80;99.90
16838;DHT22;19510;54.486;9.046;2022-07-29T12:33:41;23.70;99.90
16838;DHT22;19510;54.486;9.046;2022-07-29T12:36:08;23.70;99.90
16838;DHT22;19510;54.486;9.046;2022-07-29T12:38:34;23.60;99.90
16838;DHT22;19510;54.486;9.046;2022-07-29T12:41:01;23.70;99.90
16838;DHT22;19510;54.486;9.046;2022-07-29T12:43:27;23.60;99.90
16838;DHT22;19510;54.486;9.046;2022-07-29T12:45:55;23.50;99.90
16838;DHT22;19510;54.486;9.046;2022-07-29T12:48:38;23.50;99.90
16838;DHT22;19510;54.486;9.046;2022-07-29T12:51:06;23.40;99.90
16838;DHT22;19510;54.486;9.046;2022-07-29T12:53:33;23.30;99.90
16838;DHT22;19510;54.486;9.046;2022-07-29T12:55:59;23.30;99.90
16838;DHT22;19510;54.486;9.046;2022-07-29T13:01:06;23.30;99.90
16838;DHT22;19510;54.486;9.046;2022-07-29T13:03:45;23.30;99.90
16838;DHT22;19510;54.486;9.046;2022-07-29T13:09:16;23.20;99.90
16838;DHT22;19510;54.486;9.046;2022-07-29T13:11:47;23.20;99.90
16838;DHT22;19510;54.486;9.046;2022-07-29T13:14:31;23.10;99.90
16838;DHT22;19510;54.486;9.046;2022-07-29T13:17:12;23.10;99.90
16838;DHT22;19510;54.486;9.046;2022-07-29T13:19:39;23.00;99.90
16838;DHT22;19510;54.486;9.046;2022-07-29T13:22:13;23.10;99.90
16838;DHT22;19510;54.486;9.046;2022-07-29T13:25:05;23.20;99.90
16838;DHT22;19510;54.486;9.046;2022-07-29T13:27:35;23.20;99.90
16838;DHT22;19510;54.486;9.046;2022-07-29T13:30:04;23.20;99.90
16838;DHT22;19510;54.486;9.046;2022-07-29T13:32:30;23.20;99.90
16838;DHT22;19510;54.486;9.046;2022-07-29T13:34:59;23.10;99.90
16838;DHT22;19510;54.486;9.046;2022-07-29T13:37:26;23.20;99.90
16838;DHT22;19510;54.486;9.046;2022-07-29T13:39:55;23.00;99.90
16838;DHT22;19510;54.486;9.046;2022-07-29T13:42:22;23.00;99.90
16838;DHT22;19510;54.486;9.046;2022-07-29T13:44:48;23.10;99.90
16838;DHT22;19510;54.486;9.046;2022-07-29T13:47:16;23.00;99.90
16838;DHT22;19510;54.486;9.046;2022-07-29T13:49:42;23.20;99.90
16838;DHT22;19510;54.486;9.046;2022-07-29T13:52:07;23.30;99.90
16838;DHT22;19510;54.486;9.046;2022-07-29T13:54:33;23.30;99.90
16838;DHT22;19510;54.486;9.046;2022-07-29T13:57:05;23.40;99.90
16838;DHT22;19510;54.486;9.046;2022-07-29T13:59:31;23.40;99.90
16838;DHT22;19510;54.486;9.046;2022-07-29T14:01:57;23.40;99.90
16838;DHT22;19510;54.486;9.046;2022-07-29T14:04:23;23.50;99.90
16838;DHT22;19510;54.486;9.046;2022-07-29T14:06:49;23.60;99.90
16838;DHT22;19510;54.486;9.046;2022-07-29T14:09:15;23.80;99.90
16838;DHT22;19510;54.486;9.046;2022-07-29T14:11:41;24.10;99.90
16838;DHT22;19510;54.486;9.046;2022-07-29T14:14:07;24.30;99.90
16838;DHT22;19510;54.486;9.046;2022-07-29T14:16:33;24.70;99.90
16838;DHT22;19510;54.486;9.046;2022-07-29T14:18:59;25.00;99.90
16838;DHT22;19510;54.486;9.046;2022-07-29T14:21:27;25.40;99.90
16838;DHT22;19510;54.486;9.046;2022-07-29T14:23:58;25.50;99.90
16838;DHT22;19510;54.486;9.046;2022-07-29T14:26:23;25.50;99.90
16838;DHT22;19510;54.486;9.046;2022-07-29T14:28:49;25.60;99.90
16838;DHT22;19510;54.486;9.046;2022-07-29T14:31:15;25.60;99.90
16838;DHT22;19510;54.486;9.046;2022-07-29T14:33:41;25.60;99.90
16838;DHT22;19510;54.486;9.046;2022-07-29T14:36:08;25.40;99.90
16838;DHT22;19510;54.486;9.046;2022-07-29T14:38:34;25.50;99.90
16838;DHT22;19510;54.486;9.046;2022-07-29T14:41:00;25.30;99.90
16838;DHT22;19510;54.486;9.046;2022-07-29T14:43:26;25.20;99.90
16838;DHT22;19510;54.486;9.046;2022-07-29T19:17:59;21.10;99.90
16838;DHT22;19510;54.486;9.046;2022-07-29T19:20:25;21.00;99.90
16838;DHT22;19510;54.486;9.046;2022-07-29T19:22:52;21.00;99.90
16838;DHT22;19510;54.486;9.046;2022-07-29T19:25:18;20.90;99.90
16838;DHT22;19510;54.486;9.046;2022-07-29T19:27:44;20.90;99.90
16838;DHT22;19510;54.486;9.046;2022-07-29T19:30:11;20.90;99.90
16838;DHT22;19510;54.486;9.046;2022-07-29T19:32:39;21.00;99.90
16838;DHT22;19510;54.486;9.046;2022-07-29T19:35:05;20.90;99.90
16838;DHT22;19510;54.486;9.046;2022-07-29T19:37:53;20.90;99.90
16838;DHT22;19510;54.486;9.046;2022-07-29T19:40:20;20.80;99.90
16838;DHT22;19510;54.486;9.046;2022-07-29T19:42:47;20.90;99.90
16838;DHT22;19510;54.486;9.046;2022-07-29T19:45:15;20.80;99.90
16838;DHT22;19510;54.486;9.046;2022-07-29T19:47:41;20.70;99.90
16838;DHT22;19510;54.486;9.046;2022-07-29T19:50:08;20.70;99.90
16838;DHT22;19510;54.486;9.046;2022-07-29T19:52:34;20.70;99.90
16838;DHT22;19510;54.486;9.046;2022-07-29T19:55:01;20.70;99.90
16838;DHT22;19510;54.486;9.046;2022-07-29T19:57:26;20.70;99.90
16838;DHT22;19510;54.486;9.046;2022-07-29T19:59:52;20.60;99.90
16838;DHT22;19510;54.486;9.046;2022-07-29T20:02:18;20.50;99.90
16838;DHT22;19510;54.486;9.046;2022-07-29T20:04:43;20.50;99.90
16838;DHT22;19510;54.486;9.046;2022-07-29T20:07:09;20.50;99.90
16838;DHT22;19510;54.486;9.046;2022-07-29T20:09:36;20.60;99.90
16838;DHT22;19510;54.486;9.046;2022-07-29T20:12:04;20.60;99.90
16838;DHT22;19510;54.486;9.046;2022-07-29T20:14:30;20.50;99.90
16838;DHT22;19510;54.486;9.046;2022-07-29T20:16:56;20.50;99.90
16838;DHT22;19510;54.486;9.046;2022-07-29T20:19:22;20.60;99.90
16838;DHT22;19510;54.486;9.046;2022-07-29T20:21:47;20.50;99.90
16838;DHT22;19510;54.486;9.046;2022-07-29T20:24:15;20.50;99.90
16838;DHT22;19510;54.486;9.046;2022-07-29T20:26:40;20.40;99.90
16838;DHT22;19510;54.486;9.046;2022-07-29T20:29:06;20.50;99.90
16838;DHT22;19510;54.486;9.046;2022-07-29T20:31:34;20.40;99.90
16838;DHT22;19510;54.486;9.046;2022-07-29T20:34:00;20.30;99.90
16838;DHT22;19510;54.486;9.046;2022-07-29T20:36:26;20.30;99.90
16838;DHT22;19510;54.486;9.046;2022-07-29T20:38:53;20.20;99.90
16838;DHT22;19510;54.486;9.046;2022-07-29T20:41:19;20.20;99.90
16838;DHT22;19510;54.486;9.046;2022-07-29T20:43:45;20.20;99.90
16838;DHT22;19510;54.486;9.046;2022-07-29T20:46:11;20.20;99.90
16838;DHT22;19510;54.486;9.046;2022-07-29T20:48:37;20.20;99.90
16838;DHT22;19510;54.486;9.046;2022-07-29T20:51:04;20.10;99.90
16838;DHT22;19510;54.486;9.046;2022-07-29T20:53:31;20.10;99.90
16838;DHT22;19510;54.486;9.046;2022-07-29T20:55:58;20.00;99.90
